createdAt,value
2019-02-25T00:00:33.346Z,2.10
2019-02-25T00:03:01.764Z,2.10
2019-02-25T00:05:30.156Z,2.10
2019-02-25T00:07:58.561Z,2.10
2019-02-25T00:10:27.343Z,2.10
2019-02-25T00:12:55.755Z,2.00
2019-02-25T00:15:24.182Z,2.00
2019-02-25T00:17:52.684Z,2.00
2019-02-25T00:20:21.066Z,1.90
2019-02-25T00:22:49.457Z,1.90
2019-02-25T00:25:17.904Z,1.90
2019-02-25T00:27:46.303Z,1.30
2019-02-25T00:30:15.432Z,1.90
2019-02-25T00:32:43.851Z,1.80
2019-02-25T00:35:12.253Z,1.80
2019-02-25T00:37:40.647Z,1.80
2019-02-25T00:40:11.352Z,1.80
2019-02-25T00:42:39.807Z,1.80
2019-02-25T00:45:10.794Z,1.80
2019-02-25T00:47:39.250Z,1.90
2019-02-25T00:50:15.907Z,1.80
2019-02-25T00:52:44.320Z,1.90
2019-02-25T00:55:13.794Z,1.90
2019-02-25T00:57:42.230Z,1.90
2019-02-25T01:00:22.758Z,1.90
2019-02-25T01:02:51.156Z,1.90
2019-02-25T01:05:21.505Z,1.90
2019-02-25T01:07:51.247Z,1.90
2019-02-25T01:10:19.766Z,1.90
2019-02-25T01:12:48.093Z,1.90
2019-02-25T01:15:17.505Z,1.90
2019-02-25T01:17:45.924Z,1.90
2019-02-25T01:20:16.487Z,1.90
2019-02-25T01:22:44.892Z,1.90
2019-02-25T01:25:14.648Z,1.90
2019-02-25T01:27:43.387Z,2.00
2019-02-25T01:30:16.560Z,2.00
2019-02-25T01:32:44.986Z,2.00
2019-02-25T01:35:14.260Z,2.10
2019-02-25T01:37:42.684Z,2.10
2019-02-25T01:40:14.705Z,2.10
2019-02-25T01:42:43.091Z,2.00
2019-02-25T01:45:13.821Z,2.10
2019-02-25T01:47:42.210Z,2.00
2019-02-25T01:50:11.252Z,2.00
2019-02-25T01:52:39.677Z,2.00
2019-02-25T01:55:10.577Z,2.00
2019-02-25T01:57:38.947Z,1.90
2019-02-25T02:00:10.648Z,1.90
2019-02-25T02:02:39.027Z,1.90
2019-02-25T02:05:07.438Z,1.90
2019-02-25T02:07:35.875Z,1.90
2019-02-25T02:10:06.302Z,1.90
2019-02-25T02:12:34.695Z,1.80
2019-02-25T02:15:03.385Z,1.80
2019-02-25T02:17:31.822Z,1.80
2019-02-25T02:20:00.296Z,1.80
2019-02-25T02:22:28.615Z,1.80
2019-02-25T02:24:57.008Z,1.80
2019-02-25T02:27:25.510Z,1.70
2019-02-25T02:29:53.891Z,1.70
2019-02-25T02:32:22.284Z,1.70
2019-02-25T02:34:51.685Z,1.70
2019-02-25T02:37:21.122Z,1.60
2019-02-25T02:39:50.439Z,1.60
2019-02-25T02:42:20.366Z,1.60
2019-02-25T02:44:53.192Z,1.60
2019-02-25T02:47:30.733Z,1.60
2019-02-25T02:50:01.306Z,1.60
2019-02-25T02:52:29.692Z,1.60
2019-02-25T02:54:58.485Z,1.60
2019-02-25T02:57:26.863Z,1.60
2019-02-25T02:59:55.251Z,1.70
2019-02-25T03:02:23.703Z,1.70
2019-02-25T03:04:52.095Z,1.70
2019-02-25T03:07:20.481Z,1.80
2019-02-25T03:09:48.960Z,1.70
2019-02-25T03:12:20.965Z,1.80
2019-02-25T03:14:49.344Z,1.80
2019-02-25T03:17:17.779Z,1.70
2019-02-25T03:19:48.518Z,1.70
2019-02-25T03:22:18.897Z,1.70
2019-02-25T03:24:48.330Z,1.70
2019-02-25T03:27:18.721Z,1.70
2019-02-25T03:29:47.139Z,1.70
2019-02-25T03:32:15.538Z,1.60
2019-02-25T03:34:43.931Z,1.60
2019-02-25T03:37:12.390Z,1.60
2019-02-25T03:39:41.731Z,1.60
2019-02-25T03:42:10.130Z,1.50
2019-02-25T03:44:38.524Z,1.50
2019-02-25T03:47:06.965Z,1.50
2019-02-25T03:49:35.371Z,1.50
2019-02-25T03:52:03.759Z,1.40
2019-02-25T03:54:32.151Z,1.40
2019-02-25T03:57:00.534Z,1.40
2019-02-25T03:59:28.975Z,1.40
2019-02-25T04:01:57.353Z,1.40
2019-02-25T04:04:25.843Z,1.40
2019-02-25T04:06:54.572Z,1.40
2019-02-25T04:09:26.991Z,1.40
2019-02-25T04:11:55.623Z,1.40
2019-02-25T04:14:24.053Z,1.40
2019-02-25T04:16:52.437Z,1.30
2019-02-25T04:19:21.872Z,1.30
2019-02-25T04:21:53.912Z,1.30
2019-02-25T04:24:22.369Z,1.30
2019-02-25T04:26:50.763Z,1.30
2019-02-25T04:29:19.145Z,1.30
2019-02-25T04:31:47.530Z,1.30
2019-02-25T04:34:15.928Z,1.30
2019-02-25T04:36:44.356Z,1.40
2019-02-25T04:39:12.748Z,1.40
2019-02-25T04:41:41.124Z,1.30
2019-02-25T04:44:09.623Z,1.30
2019-02-25T04:46:37.981Z,1.30
2019-02-25T04:49:06.364Z,1.40
2019-02-25T04:51:35.794Z,1.40
2019-02-25T04:54:04.183Z,1.40
2019-02-25T04:56:32.583Z,1.40
2019-02-25T04:59:00.981Z,1.40
2019-02-25T05:01:29.387Z,1.40
2019-02-25T05:03:57.787Z,1.30
2019-02-25T05:06:26.178Z,1.30
2019-02-25T05:08:54.564Z,1.30
2019-02-25T05:11:25.755Z,1.30
2019-02-25T05:13:54.557Z,1.30
2019-02-25T05:16:22.932Z,1.30
2019-02-25T05:18:51.312Z,1.30
2019-02-25T05:21:19.799Z,1.30
2019-02-25T05:23:48.184Z,1.30
2019-02-25T05:26:16.727Z,1.20
2019-02-25T05:28:45.173Z,1.20
2019-02-25T05:31:13.923Z,1.20
2019-02-25T05:33:43.274Z,1.20
2019-02-25T05:36:12.122Z,1.20
2019-02-25T05:38:40.906Z,1.20
2019-02-25T05:41:10.255Z,1.30
2019-02-25T05:43:38.764Z,1.30
2019-02-25T05:46:08.224Z,1.30
2019-02-25T05:48:36.629Z,1.30
2019-02-25T05:51:05.025Z,1.40
2019-02-25T05:53:35.888Z,1.40
2019-02-25T05:56:04.347Z,1.50
2019-02-25T05:58:33.752Z,1.50
2019-02-25T06:01:02.210Z,1.50
2019-02-25T06:03:30.617Z,1.60
2019-02-25T06:06:01.002Z,1.70
2019-02-25T06:08:29.441Z,1.80
2019-02-25T06:10:58.817Z,1.90
2019-02-25T06:13:27.187Z,2.00
2019-02-25T06:15:56.585Z,2.00
2019-02-25T06:18:24.996Z,2.00
2019-02-25T06:20:53.476Z,2.10
2019-02-25T06:23:22.849Z,2.10
2019-02-25T06:25:58.861Z,2.20
2019-02-25T06:28:27.805Z,2.30
2019-02-25T06:30:57.615Z,2.40
2019-02-25T06:33:26.186Z,2.50
2019-02-25T06:35:56.002Z,2.50
2019-02-25T06:38:27.429Z,2.70
2019-02-25T06:40:56.133Z,2.80
2019-02-25T06:43:24.868Z,2.90
2019-02-25T06:45:53.355Z,3.10
2019-02-25T06:48:21.864Z,3.20
2019-02-25T06:50:51.843Z,3.30
2019-02-25T06:53:24.577Z,3.40
2019-02-25T06:55:53.995Z,3.50
2019-02-25T06:58:23.369Z,3.60
2019-02-25T07:00:51.781Z,3.80
2019-02-25T07:03:20.250Z,3.90
2019-02-25T07:06:03.575Z,4.00
2019-02-25T07:08:37.476Z,4.00
2019-02-25T07:11:10.642Z,4.20
2019-02-25T07:13:40.712Z,4.20
2019-02-25T07:16:24.055Z,4.30
2019-02-25T07:19:00.049Z,4.40
2019-02-25T07:21:33.182Z,4.50
2019-02-25T07:24:15.291Z,4.60
2019-02-25T07:26:47.822Z,4.90
2019-02-25T07:29:26.469Z,5.60
2019-02-25T07:32:12.909Z,6.40
2019-02-25T07:34:45.470Z,7.00
2019-02-25T07:37:14.808Z,7.80
2019-02-25T07:39:53.801Z,8.70
2019-02-25T07:42:26.749Z,9.30
2019-02-25T07:44:59.427Z,9.80
2019-02-25T07:47:32.599Z,10.40
2019-02-25T07:50:05.187Z,10.90
2019-02-25T07:52:47.192Z,11.80
2019-02-25T07:55:29.608Z,12.10
2019-02-25T07:58:11.433Z,12.00
2019-02-25T08:00:48.449Z,12.90
2019-02-25T08:03:30.499Z,13.30
2019-02-25T08:06:03.765Z,13.60
2019-02-25T08:08:34.840Z,13.90
2019-02-25T08:11:07.757Z,13.80
2019-02-25T08:13:45.212Z,13.60
2019-02-25T08:16:18.930Z,13.80
2019-02-25T08:18:53.060Z,14.00
2019-02-25T08:21:25.895Z,13.90
2019-02-25T08:24:01.905Z,13.60
2019-02-25T08:26:31.943Z,13.90
2019-02-25T08:29:02.295Z,15.00
2019-02-25T08:31:32.384Z,15.70
2019-02-25T08:34:05.410Z,15.70
2019-02-25T08:37:12.884Z,16.20
2019-02-25T08:39:50.652Z,16.60
2019-02-25T08:42:37.853Z,16.30
2019-02-25T08:45:10.889Z,16.80
2019-02-25T08:47:40.932Z,17.20
2019-02-25T08:50:11.959Z,17.50
2019-02-25T08:52:40.489Z,17.50
2019-02-25T08:55:10.773Z,17.10
2019-02-25T08:57:41.134Z,16.90
2019-02-25T09:00:14.442Z,17.00
2019-02-25T09:02:43.474Z,17.00
2019-02-25T09:05:13.912Z,17.20
2019-02-25T09:07:42.961Z,17.90
2019-02-25T09:10:13.596Z,18.80
2019-02-25T09:12:42.210Z,19.70
2019-02-25T09:15:13.260Z,20.30
2019-02-25T09:17:44.396Z,20.80
2019-02-25T09:20:14.338Z,21.10
2019-02-25T09:22:42.789Z,21.20
2019-02-25T09:25:15.858Z,21.40
2019-02-25T09:27:44.249Z,21.20
2019-02-25T09:30:19.696Z,21.20
2019-02-25T09:32:48.176Z,21.40
2019-02-25T09:35:17.144Z,21.60
2019-02-25T09:37:45.606Z,21.80
2019-02-25T09:40:16.700Z,22.00
2019-02-25T09:42:45.102Z,22.20
2019-02-25T09:45:15.197Z,22.40
2019-02-25T09:47:43.771Z,22.30
2019-02-25T09:50:14.754Z,22.20
2019-02-25T09:52:43.223Z,22.00
2019-02-25T09:55:14.171Z,21.90
2019-02-25T09:57:42.589Z,22.20
2019-02-25T10:00:18.223Z,22.30
2019-02-25T10:02:46.610Z,22.50
2019-02-25T10:05:15.021Z,22.50
2019-02-25T10:07:44.683Z,22.50
2019-02-25T10:10:15.127Z,22.30
2019-02-25T10:12:43.474Z,21.80
2019-02-25T10:15:16.025Z,20.80
2019-02-25T10:17:44.439Z,20.20
2019-02-25T10:20:14.799Z,20.00
2019-02-25T10:22:45.174Z,19.50
2019-02-25T10:25:13.582Z,17.60
2019-02-25T10:27:42.000Z,16.10
2019-02-25T10:30:17.545Z,14.90
2019-02-25T10:32:45.941Z,14.10
2019-02-25T10:35:19.903Z,13.40
2019-02-25T10:37:48.333Z,12.80
2019-02-25T10:40:19.074Z,12.40
2019-02-25T10:42:46.809Z,11.90
2019-02-25T10:45:20.515Z,11.60
2019-02-25T10:47:49.449Z,11.40
2019-02-25T10:50:20.092Z,11.20
2019-02-25T10:52:49.535Z,11.00
2019-02-25T10:55:24.196Z,10.80
2019-02-25T10:57:53.284Z,10.60
2019-02-25T11:00:22.748Z,10.50
2019-02-25T11:02:53.331Z,10.30
2019-02-25T11:05:23.171Z,10.20
2019-02-25T11:07:51.417Z,10.10
2019-02-25T11:10:22.367Z,10.00
2019-02-25T11:12:53.360Z,9.80
2019-02-25T11:15:22.085Z,9.80
2019-02-25T11:17:51.805Z,9.70
2019-02-25T11:20:20.761Z,9.70
2019-02-25T11:22:49.123Z,9.60
2019-02-25T11:25:19.280Z,9.50
2019-02-25T11:27:49.625Z,9.50
2019-02-25T11:30:19.370Z,9.50
2019-02-25T11:32:51.115Z,9.40
2019-02-25T11:35:19.474Z,9.40
2019-02-25T11:37:49.537Z,9.40
2019-02-25T11:40:18.006Z,9.40
2019-02-25T11:42:46.395Z,9.30
2019-02-25T11:45:18.856Z,9.30
2019-02-25T11:47:47.262Z,9.30
2019-02-25T11:50:17.739Z,9.40
2019-02-25T11:52:46.150Z,9.50
2019-02-25T11:55:15.581Z,9.50
2019-02-25T11:57:44.005Z,9.50
2019-02-25T12:00:17.050Z,9.50
2019-02-25T12:02:45.441Z,9.50
2019-02-25T12:05:16.106Z,9.50
2019-02-25T12:07:44.587Z,9.50
2019-02-25T12:10:14.635Z,9.50
2019-02-25T12:12:43.895Z,9.50
2019-02-25T12:15:24.975Z,9.60
2019-02-25T12:17:53.479Z,9.60
2019-02-25T12:20:22.212Z,9.70
2019-02-25T12:22:50.677Z,9.70
2019-02-25T12:25:24.180Z,9.70
2019-02-25T12:27:53.807Z,9.70
2019-02-25T12:30:26.433Z,9.70
2019-02-25T12:32:54.888Z,9.70
2019-02-25T12:35:23.959Z,9.80
2019-02-25T12:37:52.561Z,9.70
2019-02-25T12:40:21.783Z,9.70
2019-02-25T12:42:50.184Z,9.70
2019-02-25T12:45:18.876Z,9.60
2019-02-25T12:47:47.354Z,9.60
2019-02-25T12:50:20.208Z,9.50
2019-02-25T12:52:48.597Z,9.50
2019-02-25T12:55:18.415Z,9.40
2019-02-25T12:57:46.798Z,9.40
2019-02-25T13:00:23.145Z,9.30
2019-02-25T13:02:51.587Z,9.30
2019-02-25T13:05:21.637Z,9.30
2019-02-25T13:07:51.100Z,9.30
2019-02-25T13:10:19.513Z,9.20
2019-02-25T13:12:47.900Z,9.10
2019-02-25T13:15:18.565Z,9.10
2019-02-25T13:17:47.019Z,9.00
2019-02-25T13:20:15.915Z,9.10
2019-02-25T13:22:44.412Z,9.20
2019-02-25T13:25:21.799Z,9.30
2019-02-25T13:27:51.827Z,9.40
2019-02-25T13:30:23.022Z,9.50
2019-02-25T13:32:52.461Z,9.50
2019-02-25T13:35:20.874Z,9.60
2019-02-25T13:37:49.289Z,9.60
2019-02-25T13:40:18.565Z,9.60
2019-02-25T13:42:47.004Z,9.50
2019-02-25T13:45:18.152Z,9.50
2019-02-25T13:47:46.704Z,9.50
2019-02-25T13:50:16.160Z,9.40
2019-02-25T13:52:48.152Z,9.30
2019-02-25T13:55:16.908Z,9.20
2019-02-25T13:57:45.329Z,9.20
2019-02-25T14:00:18.652Z,9.10
2019-02-25T14:02:47.163Z,9.00
2019-02-25T14:05:15.879Z,8.90
2019-02-25T14:07:44.252Z,8.80
2019-02-25T14:10:14.033Z,8.70
2019-02-25T14:12:42.418Z,8.60
2019-02-25T14:15:19.371Z,8.50
2019-02-25T14:17:47.787Z,8.50
2019-02-25T14:20:22.511Z,8.30
2019-02-25T14:22:51.981Z,8.20
2019-02-25T14:25:28.250Z,8.20
2019-02-25T14:27:57.031Z,8.10
2019-02-25T14:30:26.496Z,8.00
2019-02-25T14:32:55.435Z,8.00
2019-02-25T14:35:28.473Z,7.90
2019-02-25T14:38:04.215Z,7.80
2019-02-25T14:40:29.835Z,7.80
2019-02-25T14:43:00.024Z,7.70
2019-02-25T14:45:31.493Z,7.70
2019-02-25T14:48:02.498Z,7.60
2019-02-25T14:50:30.550Z,7.50
2019-02-25T14:53:00.626Z,7.40
2019-02-25T14:55:30.108Z,7.30
2019-02-25T14:58:02.173Z,7.20
2019-02-25T15:00:31.705Z,7.10
2019-02-25T15:02:58.806Z,7.00
2019-02-25T15:05:27.270Z,6.90
2019-02-25T15:07:56.613Z,6.90
2019-02-25T15:10:29.014Z,6.80
2019-02-25T15:12:59.068Z,6.70
2019-02-25T15:15:27.341Z,6.60
2019-02-25T15:17:55.709Z,6.60
2019-02-25T15:20:26.092Z,6.50
2019-02-25T15:22:54.351Z,6.50
2019-02-25T15:25:22.752Z,6.40
2019-02-25T15:27:51.178Z,6.30
2019-02-25T15:30:28.339Z,6.30
2019-02-25T15:32:59.847Z,6.20
2019-02-25T15:35:31.391Z,6.10
2019-02-25T15:37:58.329Z,6.00
2019-02-25T15:40:29.438Z,5.90
2019-02-25T15:43:12.691Z,5.90
2019-02-25T15:45:42.509Z,5.70
2019-02-25T15:48:20.538Z,5.70
2019-02-25T15:50:55.255Z,5.70
2019-02-25T15:53:23.685Z,5.70
2019-02-25T15:55:52.147Z,5.80
2019-02-25T15:58:21.751Z,5.80
2019-02-25T16:00:50.166Z,5.80
2019-02-25T16:03:20.575Z,5.80
2019-02-25T16:05:52.326Z,5.80
2019-02-25T16:08:21.719Z,5.80
2019-02-25T16:10:51.245Z,5.70
2019-02-25T16:13:19.778Z,5.70
2019-02-25T16:15:48.204Z,5.70
2019-02-25T16:18:16.672Z,5.70
2019-02-25T16:20:46.263Z,5.70
2019-02-25T16:23:15.133Z,5.70
2019-02-25T16:25:43.699Z,5.70
2019-02-25T16:28:13.052Z,5.70
2019-02-25T16:30:44.126Z,5.70
2019-02-25T16:33:14.509Z,5.60
2019-02-25T16:35:46.164Z,5.60
2019-02-25T16:38:15.330Z,5.60
2019-02-25T16:40:44.087Z,5.50
2019-02-25T16:43:13.031Z,5.50
2019-02-25T16:45:42.592Z,5.50
2019-02-25T16:48:12.016Z,5.50
2019-02-25T16:50:43.716Z,5.50
2019-02-25T16:53:14.312Z,5.50
2019-02-25T16:55:44.153Z,5.50
2019-02-25T16:58:14.024Z,5.50
2019-02-25T17:00:42.661Z,5.40
2019-02-25T17:03:13.102Z,5.40
2019-02-25T17:05:42.885Z,5.40
2019-02-25T17:08:12.854Z,5.50
2019-02-25T17:10:41.330Z,5.50
2019-02-25T17:13:12.505Z,5.40
2019-02-25T17:15:40.920Z,5.50
2019-02-25T17:18:09.636Z,5.40
2019-02-25T17:20:38.030Z,5.30
2019-02-25T17:23:09.461Z,5.20
2019-02-25T17:25:38.454Z,5.10
2019-02-25T17:28:08.204Z,5.10
2019-02-25T17:30:38.597Z,5.10
2019-02-25T17:33:10.001Z,5.00
2019-02-25T17:35:39.425Z,4.90
2019-02-25T17:38:07.832Z,4.80
2019-02-25T17:40:36.252Z,4.80
2019-02-25T17:43:04.750Z,4.80
2019-02-25T17:45:34.484Z,4.80
2019-02-25T17:48:08.147Z,4.80
2019-02-25T17:50:36.565Z,4.80
2019-02-25T17:53:05.096Z,5.20
2019-02-25T17:55:36.247Z,4.80
2019-02-25T17:58:04.712Z,4.80
2019-02-25T18:00:39.572Z,4.80
2019-02-25T18:03:07.605Z,4.70
2019-02-25T18:05:38.053Z,4.70
2019-02-25T18:08:08.152Z,4.70
2019-02-25T18:10:36.633Z,4.70
2019-02-25T18:13:08.042Z,4.70
2019-02-25T18:15:35.286Z,4.60
2019-02-25T18:18:06.985Z,4.70
2019-02-25T18:20:36.674Z,4.70
2019-02-25T18:23:05.514Z,4.70
2019-02-25T18:25:34.123Z,4.70
2019-02-25T18:28:04.415Z,4.70
2019-02-25T18:30:33.953Z,4.70
2019-02-25T18:33:05.016Z,4.70
2019-02-25T18:35:35.739Z,4.80
2019-02-25T18:38:04.786Z,4.80
2019-02-25T18:40:33.480Z,4.80
2019-02-25T18:43:04.409Z,4.70
2019-02-25T18:45:33.811Z,4.70
2019-02-25T18:48:04.263Z,4.80
2019-02-25T18:50:34.035Z,4.80
2019-02-25T18:53:02.433Z,4.80
2019-02-25T18:55:33.585Z,4.80
2019-02-25T18:58:00.986Z,4.80
2019-02-25T19:00:35.513Z,4.80
2019-02-25T19:03:04.856Z,4.80
2019-02-25T19:05:34.254Z,4.80
2019-02-25T19:08:04.702Z,4.80
2019-02-25T19:10:34.082Z,4.80
2019-02-25T19:13:02.808Z,4.80
2019-02-25T19:15:31.193Z,4.80
2019-02-25T19:17:59.717Z,4.80
2019-02-25T19:20:28.227Z,4.80
2019-02-25T19:23:00.475Z,4.80
2019-02-25T19:25:26.775Z,4.80
2019-02-25T19:27:56.617Z,4.80
2019-02-25T19:30:27.262Z,4.80
2019-02-25T19:32:55.510Z,4.90
2019-02-25T19:35:27.790Z,4.90
2019-02-25T19:37:56.285Z,4.90
2019-02-25T19:40:24.956Z,4.90
2019-02-25T19:42:54.192Z,4.90
2019-02-25T19:45:23.534Z,4.90
2019-02-25T19:47:52.035Z,4.80
2019-02-25T19:50:22.648Z,4.80
2019-02-25T19:52:51.424Z,4.90
2019-02-25T19:55:20.563Z,4.80
2019-02-25T19:57:50.026Z,4.80
2019-02-25T20:00:23.190Z,4.80
2019-02-25T20:02:52.495Z,4.80
2019-02-25T20:05:21.751Z,4.80
2019-02-25T20:07:51.445Z,4.80
2019-02-25T20:10:20.291Z,4.80
2019-02-25T20:12:50.915Z,4.80
2019-02-25T20:15:24.900Z,4.80
2019-02-25T20:17:52.946Z,4.80
2019-02-25T20:20:21.299Z,4.70
2019-02-25T20:22:49.692Z,4.70
2019-02-25T20:25:21.125Z,4.70
2019-02-25T20:27:50.850Z,4.70
2019-02-25T20:30:21.915Z,4.70
2019-02-25T20:32:50.372Z,4.70
2019-02-25T20:35:19.877Z,4.80
2019-02-25T20:37:52.886Z,4.80
2019-02-25T20:40:21.852Z,4.80
2019-02-25T20:42:51.205Z,4.90
2019-02-25T20:45:31.006Z,4.90
2019-02-25T20:48:00.165Z,4.90
2019-02-25T20:50:29.654Z,4.90
2019-02-25T20:53:01.113Z,4.90
2019-02-25T20:55:29.366Z,4.90
2019-02-25T20:57:58.478Z,4.90
2019-02-25T21:00:27.796Z,4.90
2019-02-25T21:02:56.202Z,4.90
2019-02-25T21:05:27.537Z,4.90
2019-02-25T21:07:59.173Z,5.00
2019-02-25T21:10:27.864Z,5.00
2019-02-25T21:12:57.180Z,5.00
2019-02-25T21:15:26.813Z,5.00
2019-02-25T21:17:57.738Z,4.90
2019-02-25T21:20:26.229Z,4.90
2019-02-25T21:22:57.838Z,4.90
2019-02-25T21:25:27.454Z,4.90
2019-02-25T21:27:59.217Z,4.90
2019-02-25T21:30:26.637Z,4.80
2019-02-25T21:32:57.152Z,4.80
2019-02-25T21:35:29.708Z,4.80
2019-02-25T21:37:56.998Z,4.70
2019-02-25T21:40:43.935Z,4.70
2019-02-25T21:43:16.347Z,4.70
2019-02-25T21:45:46.114Z,4.60
2019-02-25T21:48:13.751Z,4.60
2019-02-25T21:50:42.753Z,4.60
2019-02-25T21:53:15.642Z,4.60
2019-02-25T21:55:43.243Z,4.50
2019-02-25T21:58:11.706Z,4.50
2019-02-25T22:00:40.950Z,4.50
2019-02-25T22:03:12.279Z,4.50
2019-02-25T22:05:39.703Z,4.40
2019-02-25T22:08:08.130Z,4.50
2019-02-25T22:10:39.162Z,4.40
2019-02-25T22:13:08.744Z,4.40
2019-02-25T22:15:39.000Z,4.40
2019-02-25T22:18:09.318Z,4.40
2019-02-25T22:20:39.726Z,4.40
2019-02-25T22:23:08.019Z,4.40
2019-02-25T22:25:38.019Z,4.40
2019-02-25T22:28:07.829Z,4.40
2019-02-25T22:30:36.574Z,4.40
2019-02-25T22:33:07.135Z,4.30
2019-02-25T22:35:37.401Z,4.30
2019-02-25T22:38:05.955Z,4.30
2019-02-25T22:40:36.357Z,4.20
2019-02-25T22:43:04.417Z,4.20
2019-02-25T22:45:33.561Z,4.20
2019-02-25T22:48:03.008Z,4.20
2019-02-25T22:50:33.325Z,4.10
2019-02-25T22:53:03.646Z,4.10
2019-02-25T22:55:31.552Z,4.10
2019-02-25T22:57:59.988Z,4.10
2019-02-25T23:00:48.150Z,4.10
2019-02-25T23:03:18.363Z,4.10
2019-02-25T23:05:48.768Z,4.00
2019-02-25T23:08:20.699Z,4.00
2019-02-25T23:10:49.353Z,4.00
2019-02-25T23:13:19.837Z,4.00
2019-02-25T23:15:49.529Z,4.00
2019-02-25T23:18:21.497Z,4.00
2019-02-25T23:20:48.080Z,4.00
2019-02-25T23:23:18.566Z,4.00
2019-02-25T23:25:48.806Z,4.00
2019-02-25T23:28:18.449Z,4.00
2019-02-25T23:30:47.037Z,4.00
2019-02-25T23:33:17.421Z,3.30
2019-02-25T23:35:46.933Z,4.00
2019-02-25T23:38:15.586Z,3.90
2019-02-25T23:40:45.190Z,3.90
2019-02-25T23:43:16.187Z,3.80
2019-02-25T23:45:44.724Z,3.80
2019-02-25T23:48:14.187Z,3.70
2019-02-25T23:50:42.555Z,3.60
2019-02-25T23:53:11.065Z,3.60
2019-02-25T23:55:43.116Z,3.50
2019-02-25T23:58:12.369Z,3.50
